Time;durP1;ratioP1;P1;durP2;ratioP2;P2;SDS_P1;SDS_P2;PMS_P1;PMS_P2;Temp;Humidity;BMP_temperature;BMP_pressure;BME280_temperature;BME280_humidity;BME280_pressure;Samples;Min_cycle;Max_cycle;Signal;HPM_P1;HPM_P2
2022/08/20 00:00:31;;;;;;;21.00;14.40;;;;;;;17.12;46.26;100981.84;4789726;29;20056;-76
2022/08/20 00:03:01;;;;;;;22.45;15.20;;;;;;;17.10;46.26;100986.25;4790075;29;20053;-79
2022/08/20 00:05:31;;;;;;;30.50;15.65;;;;;;;17.20;46.73;101014.16;4783403;29;20223;-77
2022/08/20 00:07:57;;;;;;;29.08;16.30;;;;;;;17.12;46.66;101002.88;4806867;29;20124;-76
2022/08/20 00:10:24;;;;;;;31.80;17.63;;;;;;;17.12;46.84;101008.16;4792558;29;20047;-78
2022/08/20 00:12:51;;;;;;;28.55;17.15;;;;;;;17.08;46.96;101012.59;4787572;29;20061;-81
2022/08/20 00:15:21;;;;;;;34.40;19.17;;;;;;;17.03;46.90;101014.44;4811574;29;20139;-78
2022/08/20 00:17:51;;;;;;;32.42;19.83;;;;;;;16.99;47.38;101020.63;4814538;29;20153;-78
2022/08/20 00:20:19;;;;;;;33.58;21.75;;;;;;;16.97;47.69;101015.41;4783452;29;20460;-77
2022/08/20 00:22:46;;;;;;;35.53;22.63;;;;;;;16.93;47.98;101010.16;4782727;29;20055;-78
2022/08/20 00:25:13;;;;;;;36.20;22.98;;;;;;;16.86;47.95;101007.66;4783861;29;20043;-77
2022/08/20 00:27:39;;;;;;;31.90;21.13;;;;;;;16.76;48.26;101002.56;4811424;29;20523;-77
2022/08/20 00:30:07;;;;;;;37.95;22.10;;;;;;;16.76;48.46;101011.31;4782905;29;20043;-76
2022/08/20 00:32:44;;;;;;;32.95;21.85;;;;;;;16.74;48.65;101015.72;4810751;29;20050;-77
2022/08/20 00:35:10;;;;;;;37.33;23.75;;;;;;;16.70;48.85;101014.91;4796925;29;20051;-74
2022/08/20 00:37:37;;;;;;;38.55;25.33;;;;;;;16.65;48.93;101010.63;4810902;29;20492;-76
2022/08/20 00:40:05;;;;;;;38.05;24.52;;;;;;;16.66;49.03;101025.50;4782344;29;21427;-77
2022/08/20 00:42:40;;;;;;;30.73;23.23;;;;;;;16.55;49.73;101005.47;4796037;29;20054;-76
2022/08/20 00:45:06;;;;;;;37.55;23.73;;;;;;;16.52;49.49;101000.28;4811261;29;20055;-77
2022/08/20 00:47:33;;;;;;;37.47;22.25;;;;;;;16.55;49.52;101012.50;4794754;29;20039;-80
2022/08/20 00:49:59;;;;;;;38.25;21.85;;;;;;;16.51;49.95;101009.03;4811406;29;20047;-76
2022/08/20 00:52:26;;;;;;;32.72;21.50;;;;;;;16.46;50.07;101008.22;4781642;29;20064;-76
2022/08/20 00:54:59;;;;;;;33.42;22.10;;;;;;;16.35;50.09;101007.53;4782548;29;20062;-76
2022/08/20 00:57:31;;;;;;;30.02;21.23;;;;;;;16.39;50.76;101015.31;4810495;29;20051;-77
2022/08/20 00:59:58;;;;;;;31.02;20.55;;;;;;;16.31;50.35;101004.09;4810595;29;20183;-76
2022/08/20 01:02:26;;;;;;;30.98;21.00;;;;;;;16.39;50.70;101022.34;4794998;29;20108;-78
2022/08/20 01:04:54;;;;;;;35.17;21.05;;;;;;;16.33;50.90;101019.81;4787563;29;20123;-78
2022/08/20 01:07:31;;;;;;;30.98;20.58;;;;;;;16.31;50.67;101026.84;4810589;29;20408;-77
2022/08/20 01:10:18;;;;;;;34.00;21.15;;;;;;;16.27;51.19;101024.25;4810925;29;20462;-75
2022/08/20 01:12:47;;;;;;;29.60;19.65;;;;;;;16.25;51.32;101022.53;4810736;29;20059;-77
2022/08/20 01:15:16;;;;;;;27.95;19.98;;;;;;;16.17;51.50;101019.13;4795597;29;20059;-75
2022/08/20 01:17:46;;;;;;;33.40;18.95;;;;;;;16.07;51.41;101007.88;4811521;29;20499;-77
2022/08/20 01:20:19;;;;;;;30.95;19.73;;;;;;;16.19;51.85;101028.75;4805528;29;20039;-76
2022/08/20 01:23:29;;;;;;;29.00;19.00;;;;;;;16.15;52.01;101024.41;4809412;29;20496;-76
2022/08/20 01:26:02;;;;;;;29.17;18.75;;;;;;;16.10;51.80;101028.84;4782177;29;20398;-76
2022/08/20 01:28:41;;;;;;;27.15;17.40;;;;;;;16.00;52.04;101019.38;4783581;29;20055;-77
2022/08/20 01:31:13;;;;;;;29.63;18.52;;;;;;;15.91;52.12;101007.19;4811368;29;20044;-76
2022/08/20 01:33:40;;;;;;;25.63;16.50;;;;;;;15.95;52.86;101015.03;4788953;29;20039;-76
2022/08/20 01:36:07;;;;;;;25.98;15.93;;;;;;;16.00;52.44;101022.84;4832115;29;20520;-79
2022/08/20 01:38:34;;;;;;;23.38;15.80;;;;;;;15.95;52.66;101020.28;4817452;29;20146;-77
2022/08/20 01:41:27;;;;;;;24.33;16.15;;;;;;;15.95;52.61;101022.91;4785181;29;20039;-76
2022/08/20 01:43:55;;;;;;;27.13;16.17;;;;;;;15.91;52.70;101022.94;4798957;29;20924;-76
2022/08/20 01:46:28;;;;;;;26.60;16.00;;;;;;;15.86;53.03;101019.53;4814062;29;20516;-75
2022/08/20 01:48:55;;;;;;;27.65;15.95;;;;;;;15.77;53.26;101012.59;4783575;29;20130;-78
2022/08/20 01:51:29;;;;;;;28.13;16.17;;;;;;;15.77;53.15;101021.31;4796490;29;20050;-78
2022/08/20 01:53:58;;;;;;;24.98;15.52;;;;;;;15.76;53.45;101026.59;4798874;29;20086;-77
2022/08/20 01:56:29;;;;;;;22.50;14.90;;;;;;;15.73;53.69;101034.50;4784924;29;20084;-76
2022/08/20 01:58:58;;;;;;;24.83;15.32;;;;;;;15.75;53.83;101027.47;4784666;29;20051;-77
2022/08/20 02:01:28;;;;;;;23.25;14.55;;;;;;;15.71;53.90;101033.63;4783634;29;20104;-76
2022/08/20 02:03:55;;;;;;;24.48;14.68;;;;;;;15.66;53.98;101029.31;4813579;29;20062;-76
2022/08/20 02:06:24;;;;;;;23.15;14.23;;;;;;;15.70;54.39;101035.38;4784805;29;20126;-78
2022/08/20 02:08:53;;;;;;;29.80;14.77;;;;;;;15.64;54.16;101035.47;4813341;29;20047;-78
2022/08/20 02:11:20;;;;;;;24.40;14.70;;;;;;;15.65;54.27;101038.06;4813943;29;20508;-77
2022/08/20 02:13:51;;;;;;;23.75;14.18;;;;;;;15.57;54.50;101039.03;4797911;29;20409;-77
2022/08/20 02:16:22;;;;;;;29.67;14.45;;;;;;;15.62;54.57;101039.84;4808296;29;20146;-77
2022/08/20 02:18:55;;;;;;;20.73;12.60;;;;;;;15.54;54.60;101034.69;4812539;29;20192;-77
2022/08/20 02:21:22;;;;;;;19.42;13.20;;;;;;;15.58;54.55;101046.88;4813193;29;20054;-78
2022/08/20 02:23:48;;;;;;;24.00;13.15;;;;;;;15.53;54.55;101040.81;4797871;29;20058;-76
2022/08/20 02:26:17;;;;;;;25.02;12.48;;;;;;;15.55;54.95;101046.03;4798491;29;20051;-76
2022/08/20 02:28:48;;;;;;;22.17;12.85;;;;;;;15.57;54.92;101060.00;4784320;29;21566;-75
2022/08/20 02:31:16;;;;;;;17.73;11.33;;;;;;;15.48;54.86;101039.97;4798427;29;20043;-77
2022/08/20 02:33:43;;;;;;;23.90;13.65;;;;;;;15.53;54.98;101053.94;4785044;29;20050;-78
2022/08/20 02:36:11;;;;;;;24.80;13.68;;;;;;;15.50;55.01;101052.19;4787106;29;20043;-77
2022/08/20 02:38:39;;;;;;;28.92;17.05;;;;;;;15.49;54.95;101039.09;4785328;29;20404;-78
2022/08/20 02:41:07;;;;;;;29.23;17.42;;;;;;;15.60;55.15;101058.22;4791237;29;20110;-76
2022/08/20 02:43:34;;;;;;;26.77;18.05;;;;;;;15.61;54.71;101056.47;4787681;29;20039;-77
2022/08/20 02:46:01;;;;;;;30.52;21.50;;;;;;;15.72;54.45;101053.75;4830037;29;20035;-77
2022/08/20 02:48:28;;;;;;;37.70;21.45;;;;;;;15.74;54.36;101055.47;4808489;29;20036;-77
2022/08/20 02:51:00;;;;;;;39.53;23.35;;;;;;;15.77;54.43;101057.19;4808428;29;20055;-76
2022/08/20 02:53:28;;;;;;;35.47;23.00;;;;;;;15.76;54.06;101052.84;4818016;29;20043;-77
2022/08/20 02:55:55;;;;;;;37.33;25.67;;;;;;;15.82;54.03;101060.63;4801834;29;20047;-76
2022/08/20 02:58:22;;;;;;;37.50;25.70;;;;;;;15.88;54.12;101062.38;4801871;29;20516;-77
2022/08/20 03:00:49;;;;;;;45.70;27.38;;;;;;;15.93;54.04;101066.66;4815864;29;20076;-79
2022/08/20 03:03:21;;;;;;;45.42;28.20;;;;;;;15.97;54.06;101049.13;4786349;29;20050;-77
2022/08/20 03:05:49;;;;;;;41.38;29.13;;;;;;;16.07;53.64;101060.38;4787754;29;20058;-76
2022/08/20 03:08:16;;;;;;;45.08;28.50;;;;;;;16.00;53.73;101049.09;4813756;29;20047;-77
2022/08/20 03:10:45;;;;;;;42.95;27.70;;;;;;;16.10;53.92;101060.34;4800733;29;20047;-75
2022/08/20 03:13:12;;;;;;;48.63;28.55;;;;;;;16.14;53.69;101053.28;4794868;29;20417;-76
2022/08/20 03:15:41;;;;;;;43.90;28.65;;;;;;;16.16;53.71;101052.41;4814551;29;20142;-77
2022/08/20 03:18:07;;;;;;;39.75;26.02;;;;;;;16.24;53.45;101061.03;4789050;29;20067;-78
2022/08/20 03:20:34;;;;;;;41.92;25.98;;;;;;;16.24;53.51;101053.16;4797068;29;20142;-77
2022/08/20 03:23:00;;;;;;;39.65;26.40;;;;;;;16.33;53.42;101064.44;4783659;29;20412;-78
2022/08/20 03:25:27;;;;;;;38.22;23.88;;;;;;;16.40;53.31;101068.75;4783371;29;20513;-76
2022/08/20 03:27:55;;;;;;;38.60;24.40;;;;;;;16.38;53.19;101055.63;4812235;29;20436;-75
2022/08/20 03:30:23;;;;;;;38.63;22.83;;;;;;;16.49;52.90;101067.75;4812045;29;20146;-78
2022/08/20 03:32:49;;;;;;;35.42;23.17;;;;;;;16.55;53.04;101067.69;4811635;29;20109;-77
2022/08/20 03:35:17;;;;;;;33.45;23.25;;;;;;;16.69;52.86;101070.97;4783265;29;20039;-78
2022/08/20 03:37:44;;;;;;;35.92;21.65;;;;;;;16.85;52.75;101070.75;4788508;29;20075;-78
2022/08/20 03:40:14;;;;;;;28.70;18.67;;;;;;;16.83;52.61;101062.91;4781526;29;20062;-77
2022/08/20 03:42:40;;;;;;;32.38;19.83;;;;;;;17.00;52.26;101067.91;4783505;29;20576;-77
2022/08/20 03:45:09;;;;;;;33.20;19.80;;;;;;;17.21;52.32;101062.34;4811509;29;20062;-78
2022/08/20 03:47:35;;;;;;;34.42;19.27;;;;;;;17.49;51.78;101065.38;4783337;29;20043;-78
2022/08/20 03:50:04;;;;;;;33.25;19.30;;;;;;;17.68;51.22;101062.41;4811025;29;20043;-77
2022/08/20 03:52:30;;;;;;;29.27;20.45;;;;;;;17.91;51.03;101059.34;4797291;29;20047;-77
2022/08/20 03:54:56;;;;;;;27.42;19.17;;;;;;;18.19;50.56;101059.69;4796076;29;20511;-77
2022/08/20 03:57:22;;;;;;;39.42;19.40;;;;;;;18.46;49.98;101062.66;4788114;29;20134;-78
2022/08/20 03:59:50;;;;;;;31.35;19.90;;;;;;;18.84;49.15;101067.97;4811040;29;20043;-78
2022/08/20 04:02:17;;;;;;;38.67;18.80;;;;;;;19.00;48.42;101088.72;4796617;29;20043;-78
2022/08/20 04:04:43;;;;;;;32.22;18.30;;;;;;;18.79;47.86;101069.84;4782524;29;20153;-77
2022/08/20 04:07:16;;;;;;;30.13;17.50;;;;;;;18.55;47.93;101065.97;4778414;29;20043;-78
2022/08/20 04:09:45;;;;;;;25.65;16.33;;;;;;;18.41;48.15;101056.59;4792845;29;20516;-79
2022/08/20 04:12:11;;;;;;;25.00;16.65;;;;;;;18.41;48.16;101068.94;4784770;29;20079;-76
2022/08/20 04:14:39;;;;;;;29.95;16.45;;;;;;;18.30;48.53;101064.72;4813671;29;20509;-78
2022/08/20 04:17:07;;;;;;;27.42;15.93;;;;;;;18.25;48.31;101063.97;4789015;29;20055;-76
2022/08/20 04:19:34;;;;;;;28.02;16.42;;;;;;;18.11;48.38;101058.97;4811995;29;20123;-76
2022/08/20 04:22:00;;;;;;;26.80;15.68;;;;;;;18.18;48.84;101065.84;4781697;29;20039;-79
2022/08/20 04:24:27;;;;;;;27.00;15.55;;;;;;;18.21;48.71;101046.47;4813165;29;20195;-77
2022/08/20 04:26:53;;;;;;;25.83;15.07;;;;;;;18.44;48.46;101059.19;4778019;29;20081;-78
2022/08/20 04:29:24;;;;;;;27.90;14.63;;;;;;;18.35;48.73;101031.25;4796807;29;20081;-77
2022/08/20 04:31:51;;;;;;;21.67;13.63;;;;;;;18.74;48.20;101072.59;4777661;29;20067;-77
2022/08/20 04:34:18;;;;;;;24.38;14.07;;;;;;;19.01;48.00;101056.19;4811093;29;20051;-78
2022/08/20 04:36:46;;;;;;;23.05;13.55;;;;;;;19.32;47.00;101066.84;4782388;29;20058;-78
2022/08/20 04:39:16;;;;;;;21.65;13.43;;;;;;;19.45;46.39;101075.31;4782535;29;20416;-77
2022/08/20 04:41:43;;;;;;;26.65;15.25;;;;;;;19.43;46.42;101058.66;4782362;29;20176;-78
2022/08/20 04:44:10;;;;;;;26.15;14.52;;;;;;;19.30;45.54;101052.81;4781428;29;20145;-77
2022/08/20 04:46:37;;;;;;;25.35;15.00;;;;;;;19.17;45.39;101067.22;4829986;29;20066;-77
2022/08/20 04:49:05;;;;;;;24.02;15.40;;;;;;;19.13;45.66;101068.19;4793726;29;20537;-77
2022/08/20 04:51:32;;;;;;;27.42;15.90;;;;;;;19.06;45.56;101068.34;4797107;29;20188;-77
2022/08/20 04:53:59;;;;;;;27.45;15.55;;;;;;;19.06;45.62;101081.53;4782737;29;20055;-77
2022/08/20 04:56:29;;;;;;;24.70;15.18;;;;;;;18.96;45.84;101078.25;4821299;29;20043;-79
2022/08/20 04:58:58;;;;;;;27.70;16.17;;;;;;;19.03;45.75;101073.69;4799793;29;20537;-76
2022/08/20 05:01:25;;;;;;;28.95;16.95;;;;;;;19.04;45.59;101071.94;4788443;29;20203;-78
2022/08/20 05:03:53;;;;;;;24.23;15.77;;;;;;;18.93;45.42;101078.28;4783497;29;20601;-76
2022/08/20 05:06:22;;;;;;;28.65;15.98;;;;;;;18.81;45.89;101073.31;4786348;29;20099;-78
2022/08/20 05:08:48;;;;;;;27.13;15.95;;;;;;;18.80;45.64;101080.34;4782830;29;20055;-77
2022/08/20 05:11:14;;;;;;;26.17;16.42;;;;;;;18.82;45.63;101075.03;4815337;29;20128;-77
2022/08/20 05:13:41;;;;;;;24.40;15.77;;;;;;;18.70;45.88;101078.81;4785411;29;20057;-79
2022/08/20 05:16:08;;;;;;;24.15;14.98;;;;;;;18.74;46.29;101072.59;4790198;29;20039;-78
2022/08/20 05:18:34;;;;;;;23.67;15.90;;;;;;;18.79;46.04;101085.66;4801545;29;20074;-75
2022/08/20 05:21:04;;;;;;;28.00;16.80;;;;;;;18.74;45.89;101076.97;4787935;29;20481;-75
2022/08/20 05:23:33;;;;;;;26.48;16.08;;;;;;;18.72;46.13;101076.13;4789572;29;20047;-77
2022/08/20 05:26:04;;;;;;;24.80;15.18;;;;;;;18.64;45.86;101071.03;4773619;29;20134;-76
2022/08/20 05:28:31;;;;;;;28.05;15.52;;;;;;;18.76;45.83;101085.72;4801685;29;20071;-77
2022/08/20 05:30:59;;;;;;;25.75;15.48;;;;;;;18.80;46.13;101090.03;4787136;29;20578;-75
2022/08/20 05:33:26;;;;;;;22.02;13.82;;;;;;;18.81;45.67;101086.50;4783936;29;20062;-75
2022/08/20 05:35:53;;;;;;;25.92;14.95;;;;;;;18.87;45.86;101088.97;4795645;29;20047;-76
2022/08/20 05:38:23;;;;;;;27.40;14.50;;;;;;;18.92;45.58;101086.25;4805817;29;20046;-77
2022/08/20 05:40:50;;;;;;;19.15;13.30;;;;;;;18.92;44.95;101071.28;4787291;29;20055;-77
2022/08/20 05:43:17;;;;;;;19.60;12.18;;;;;;;19.03;45.10;101096.56;4788140;29;20043;-76
2022/08/20 05:45:45;;;;;;;18.65;11.50;;;;;;;19.07;44.71;101101.72;4786606;29;20050;-74
2022/08/20 05:48:14;;;;;;;18.75;10.88;;;;;;;19.09;44.51;101089.38;4770783;29;20054;-77
2022/08/20 05:50:43;;;;;;;21.02;10.65;;;;;;;19.25;44.30;101094.28;4790101;29;20143;-77
2022/08/20 05:53:09;;;;;;;15.30;10.50;;;;;;;19.21;43.56;101080.28;4786763;29;20408;-77
2022/08/20 05:55:37;;;;;;;17.88;9.75;;;;;;;19.29;43.78;101084.53;4769562;29;20043;-77
2022/08/20 05:58:06;;;;;;;19.75;10.00;;;;;;;19.24;43.57;101068.78;4786201;29;20129;-77
2022/08/20 06:00:34;;;;;;;19.17;9.70;;;;;;;19.41;43.01;101086.84;4798958;29;20039;-78
2022/08/20 06:05:47;;;;;;;18.25;8.57;;;;;;;19.34;43.09;101087.91;4783917;29;20086;-79
2022/08/20 06:08:13;;;;;;;23.33;9.50;;;;;;;19.35;42.84;101090.50;4787513;29;20067;-77
2022/08/20 06:10:43;;;;;;;13.60;8.50;;;;;;;19.30;42.90;101081.00;4769147;29;20039;-80
2022/08/20 06:13:12;;;;;;;16.92;8.68;;;;;;;19.39;42.29;101097.44;4798581;29;20054;-79
2022/08/20 06:15:38;;;;;;;16.40;8.95;;;;;;;19.38;42.71;101085.16;4810782;29;20094;-79
2022/08/20 06:18:06;;;;;;;18.80;8.40;;;;;;;19.32;42.05;101108.16;4798750;29;20069;-77
2022/08/20 06:20:34;;;;;;;14.18;7.40;;;;;;;19.18;41.96;101088.28;4787090;29;20039;-79
2022/08/20 06:23:00;;;;;;;12.45;7.57;;;;;;;19.22;42.04;101089.94;4804480;29;20064;-78
2022/08/20 06:25:26;;;;;;;13.43;7.35;;;;;;;19.16;42.01;101078.69;4793292;29;20105;-78
2022/08/20 06:27:52;;;;;;;15.38;7.28;;;;;;;19.20;42.25;101077.72;4816079;29;20466;-78
2022/08/20 06:30:18;;;;;;;14.45;7.90;;;;;;;19.19;41.88;101066.28;4814147;29;20097;-79
2022/08/20 06:32:44;;;;;;;11.57;7.03;;;;;;;19.46;42.13;101081.44;4783881;29;20082;-78
2022/08/20 06:35:11;;;;;;;16.30;7.72;;;;;;;19.74;42.03;101065.75;4799111;29;20047;-78
2022/08/20 06:37:38;;;;;;;21.05;7.55;;;;;;;19.86;41.21;101091.81;4785814;29;20047;-78
2022/08/20 06:40:15;;;;;;;14.90;7.25;;;;;;;19.77;41.31;101070.94;4812926;29;20070;-79
2022/08/20 06:42:42;;;;;;;14.23;7.50;;;;;;;19.89;40.96;101072.41;4812703;29;20495;-78
2022/08/20 06:45:23;;;;;;;19.35;7.88;;;;;;;20.00;41.05;101072.09;4798079;29;20050;-79
2022/08/20 06:47:56;;;;;;;12.88;7.60;;;;;;;20.05;40.65;101075.50;4798111;29;20539;-78
2022/08/20 06:50:41;;;;;;;19.23;8.02;;;;;;;20.00;40.71;101073.00;4812950;29;20420;-78
2022/08/20 06:53:13;;;;;;;15.50;8.02;;;;;;;20.06;40.77;101048.16;4811390;29;20042;-78
2022/08/20 06:55:42;;;;;;;15.23;7.50;;;;;;;20.20;40.46;101060.97;4812209;29;20047;-78
2022/08/20 06:58:10;;;;;;;14.27;7.68;;;;;;;20.40;39.94;101060.41;4788876;29;20046;-77
2022/08/20 07:00:42;;;;;;;14.85;8.23;;;;;;;20.42;39.55;101061.19;4767799;29;20043;-78
2022/08/20 07:03:09;;;;;;;13.10;7.97;;;;;;;20.42;39.41;101060.34;4795611;29;20082;-78
2022/08/20 07:05:41;;;;;;;18.20;8.32;;;;;;;20.43;39.46;101060.28;4798644;29;20055;-79
2022/08/20 07:08:09;;;;;;;17.88;8.00;;;;;;;20.47;39.25;101061.09;4802441;29;20043;-78
2022/08/20 07:10:41;;;;;;;13.43;8.10;;;;;;;20.44;38.90;101045.31;4788449;29;20057;-79
2022/08/20 07:13:18;;;;;;;18.42;8.20;;;;;;;20.54;39.31;101051.19;4813943;29;20071;-77
2022/08/20 07:15:49;;;;;;;13.93;7.18;;;;;;;20.71;38.97;101029.50;4811740;29;20086;-77
2022/08/20 07:18:17;;;;;;;15.57;8.00;;;;;;;20.90;38.79;101040.38;4783097;29;20043;-77
2022/08/20 07:20:43;;;;;;;17.48;7.30;;;;;;;21.01;38.16;101043.56;4783700;29;20051;-77
2022/08/20 07:23:12;;;;;;;14.02;7.50;;;;;;;21.16;38.58;101033.38;4811326;29;20078;-75
2022/08/20 07:25:42;;;;;;;19.58;7.95;;;;;;;21.41;37.71;101037.81;4811842;29;20114;-77
2022/08/20 07:28:13;;;;;;;11.43;7.45;;;;;;;21.33;38.01;101035.44;4803532;29;20184;-77
2022/08/20 07:33:27;;;;;;;26.23;8.57;;;;;;;21.44;37.58;101024.47;4782657;29;20509;-78
2022/08/20 07:35:54;;;;;;;22.80;7.93;;;;;;;21.39;37.48;101002.59;4782014;29;20140;-80
2022/08/20 07:38:24;;;;;;;14.25;7.18;;;;;;;21.36;37.11;101040.63;4792197;29;20043;-79
2022/08/20 07:40:52;;;;;;;15.15;7.57;;;;;;;21.34;37.39;101031.88;4783173;29;20127;-78
2022/08/20 07:43:22;;;;;;;17.63;7.60;;;;;;;21.46;36.69;101030.59;4808194;29;20144;-77
2022/08/20 07:45:59;;;;;;;18.92;7.43;;;;;;;21.44;36.61;101032.44;4783361;29;20050;-77
2022/08/20 07:48:28;;;;;;;25.08;8.38;;;;;;;21.44;36.36;101035.06;4807092;29;20769;-76
2022/08/20 07:50:55;;;;;;;12.13;7.05;;;;;;;21.23;36.50;101032.25;4789226;29;20039;-79
2022/08/20 07:53:21;;;;;;;17.45;7.20;;;;;;;21.15;36.73;101043.09;4812495;29;20153;-77
2022/08/20 07:55:47;;;;;;;12.32;6.80;;;;;;;21.20;37.40;101046.44;4782422;29;20043;-79
2022/08/20 07:58:18;;;;;;;15.35;6.85;;;;;;;21.27;36.86;101052.41;4808963;29;20055;-76
2022/08/20 08:00:45;;;;;;;11.80;7.80;;;;;;;21.20;36.99;101050.88;4800883;29;21058;-76
2022/08/20 08:03:12;;;;;;;12.52;7.68;;;;;;;21.32;36.67;101061.03;4802505;29;20039;-78
2022/08/20 08:05:41;;;;;;;14.88;6.90;;;;;;;21.35;36.50;101055.63;4797777;29;20583;-77
2022/08/20 08:08:10;;;;;;;9.75;6.25;;;;;;;21.30;36.02;101060.22;4811231;29;20096;-78
2022/08/20 08:10:37;;;;;;;12.52;5.93;;;;;;;21.35;36.64;101066.22;4812448;29;20039;-79
2022/08/20 08:13:07;;;;;;;11.20;6.75;;;;;;;21.41;36.72;101065.16;4799257;29;20099;-78
2022/08/20 08:15:38;;;;;;;13.13;6.75;;;;;;;21.52;36.23;101068.31;4817417;29;20063;-78
2022/08/20 08:18:10;;;;;;;14.33;6.40;;;;;;;21.54;36.15;101076.19;4818684;29;20050;-77
2022/08/20 08:20:40;;;;;;;16.73;6.32;;;;;;;21.41;36.39;101059.00;4790124;29;20047;-76
2022/08/20 08:23:10;;;;;;;11.65;6.30;;;;;;;21.43;36.75;101065.97;4816011;29;20072;-78
2022/08/20 08:25:41;;;;;;;11.90;6.75;;;;;;;21.49;36.41;101068.41;4816231;29;20046;-77
2022/08/20 08:28:13;;;;;;;14.43;6.70;;;;;;;21.40;36.54;101063.44;4805607;29;20508;-78
2022/08/20 08:30:41;;;;;;;14.75;6.47;;;;;;;21.47;36.97;101061.44;4798146;29;20046;-77
2022/08/20 08:33:26;;;;;;;12.55;7.45;;;;;;;21.50;36.83;101069.28;4804405;29;20088;-77
2022/08/20 08:36:13;;;;;;;12.98;6.97;;;;;;;21.39;36.95;101066.13;4816043;29;20118;-80
2022/08/20 08:38:43;;;;;;;16.20;7.50;;;;;;;21.47;36.77;101072.88;4783285;29;20096;-78
2022/08/20 08:41:39;;;;;;;12.30;6.90;;;;;;;21.40;36.83;101076.69;4782377;29;20570;-80
2022/08/20 08:44:26;;;;;;;14.63;7.80;;;;;;;21.23;37.09;101064.00;4783257;29;20084;-79
2022/08/20 08:47:01;;;;;;;17.73;9.07;;;;;;;21.11;37.06;101064.41;4787871;29;20047;-78
2022/08/20 08:49:35;;;;;;;16.05;10.10;;;;;;;21.05;37.50;101076.94;4796776;29;20063;-80
2022/08/20 08:52:05;;;;;;;15.73;10.32;;;;;;;20.96;37.64;101082.50;4803671;29;20130;-78
2022/08/20 08:54:33;;;;;;;23.15;10.82;;;;;;;20.86;37.48;101081.94;4796107;29;20151;-80
2022/08/20 08:57:00;;;;;;;21.77;10.77;;;;;;;20.79;37.51;101076.91;4782620;29;20062;-80
2022/08/20 08:59:30;;;;;;;19.60;11.75;;;;;;;20.87;37.36;101096.00;4810221;29;20512;-80
2022/08/20 09:02:00;;;;;;;14.15;11.40;;;;;;;20.81;37.49;101093.59;4797339;29;20505;-78
2022/08/20 09:04:33;;;;;;;20.00;11.68;;;;;;;20.79;37.82;101093.63;4784831;29;20043;-76
2022/08/20 09:07:06;;;;;;;18.55;11.80;;;;;;;20.67;38.28;101081.59;4812393;29;20047;-76
2022/08/20 09:09:40;;;;;;;23.30;13.20;;;;;;;20.62;39.08;101092.34;4812559;29;20044;-78
2022/08/20 09:12:10;;;;;;;19.30;12.73;;;;;;;20.61;39.73;101080.03;4793388;29;20119;-80
2022/08/20 09:14:37;;;;;;;24.15;12.98;;;;;;;20.58;40.01;101079.25;4779433;29;20144;-77
2022/08/20 09:17:13;;;;;;;20.23;12.85;;;;;;;20.53;40.45;101081.16;4785463;29;20055;-79
2022/08/20 09:19:39;;;;;;;22.42;14.13;;;;;;;20.42;40.52;101068.28;4782441;29;20050;-79
2022/08/20 09:22:14;;;;;;;29.73;13.80;;;;;;;20.42;41.33;101089.41;4814440;29;20051;-78
2022/08/20 09:24:44;;;;;;;27.45;15.80;;;;;;;20.25;41.75;101066.13;4817679;29;20050;-79
2022/08/20 09:27:11;;;;;;;29.10;15.73;;;;;;;20.28;41.70;101082.78;4790507;29;20123;-78
2022/08/20 09:29:38;;;;;;;27.10;16.67;;;;;;;20.11;42.21;101095.59;4793710;29;20128;-77
2022/08/20 09:32:07;;;;;;;27.45;16.90;;;;;;;20.05;42.56;101082.56;4824176;29;20668;-78
2022/08/20 09:34:41;;;;;;;26.42;17.20;;;;;;;20.09;42.85;101068.34;4800891;29;20043;-79
2022/08/20 09:37:07;;;;;;;29.85;16.65;;;;;;;20.17;43.60;101069.00;4815011;29;20059;-78
2022/08/20 09:39:34;;;;;;;25.73;16.08;;;;;;;20.14;43.68;101063.78;4802832;29;20055;-79
2022/08/20 09:42:07;;;;;;;30.63;16.30;;;;;;;20.12;43.94;101068.25;4811926;29;20043;-79
2022/08/20 09:44:34;;;;;;;31.00;17.33;;;;;;;20.07;44.17;101052.53;4810982;29;20383;-79
2022/08/20 09:47:00;;;;;;;27.85;16.63;;;;;;;20.12;44.23;101040.06;4781241;29;20043;-77
2022/08/20 09:49:26;;;;;;;38.10;17.42;;;;;;;20.36;43.47;101042.91;4795785;29;20612;-78
2022/08/20 09:51:52;;;;;;;29.17;16.13;;;;;;;20.29;43.48;101012.28;4796322;29;20043;-77
2022/08/20 09:54:19;;;;;;;25.30;16.17;;;;;;;20.46;44.05;101023.19;4782414;29;20047;-78
2022/08/20 09:56:45;;;;;;;24.65;16.13;;;;;;;20.54;43.85;101040.59;4781240;29;20074;-77
2022/08/20 09:59:14;;;;;;;22.88;15.68;;;;;;;20.56;43.82;101020.28;4785631;29;20578;-78
2022/08/20 10:01:41;;;;;;;24.77;15.30;;;;;;;20.66;43.41;101042.84;4813258;29;20726;-79
2022/08/20 10:04:07;;;;;;;20.85;14.82;;;;;;;20.60;43.37;101048.34;4799691;29;20081;-81
2022/08/20 10:06:39;;;;;;;26.35;15.07;;;;;;;20.39;43.20;101056.03;4798835;29;20047;-79
2022/08/20 10:09:05;;;;;;;22.52;14.65;;;;;;;20.25;44.13;101066.13;4783002;29;20084;-78
2022/08/20 10:11:35;;;;;;;19.35;15.30;;;;;;;19.93;44.26;101039.72;4798629;29;20130;-78
2022/08/20 10:14:01;;;;;;;23.02;15.10;;;;;;;20.09;44.55;101063.94;4794362;29;20047;-78
2022/08/20 10:16:27;;;;;;;23.65;14.90;;;;;;;20.09;44.22;101056.00;4797323;29;20740;-79
2022/08/20 10:18:55;;;;;;;26.58;15.63;;;;;;;20.20;45.10;101053.06;4798102;29;20050;-77
2022/08/20 10:21:22;;;;;;;24.23;14.98;;;;;;;20.31;44.51;101056.22;4799499;29;20035;-79
2022/08/20 10:23:48;;;;;;;23.05;15.07;;;;;;;20.36;44.63;101047.31;4799154;29;20054;-80
2022/08/20 10:26:16;;;;;;;21.60;13.43;;;;;;;20.53;44.22;101046.81;4784596;29;20043;-80
2022/08/20 10:28:42;;;;;;;24.70;13.50;;;;;;;20.54;44.09;101043.25;4798056;29;20054;-79
2022/08/20 10:31:10;;;;;;;22.80;13.40;;;;;;;20.55;43.75;101051.13;4798102;29;20116;-79
2022/08/20 10:33:37;;;;;;;26.42;13.50;;;;;;;20.57;43.55;101059.03;4769782;29;20062;-77
2022/08/20 10:36:12;;;;;;;22.35;12.73;;;;;;;20.47;43.59;101050.50;4797772;29;20439;-76
2022/08/20 10:38:38;;;;;;;22.00;13.07;;;;;;;20.42;43.28;101044.50;4798672;29;20401;-80
2022/08/20 10:41:05;;;;;;;17.48;11.07;;;;;;;20.40;42.67;101039.25;4767915;29;20420;-78
2022/08/20 10:43:31;;;;;;;27.10;11.20;;;;;;;20.38;42.78;101041.09;4767816;29;20043;-78
2022/08/20 10:45:57;;;;;;;16.42;10.63;;;;;;;20.42;42.44;101036.56;4784467;29;20051;-79
2022/08/20 10:48:23;;;;;;;21.50;10.95;;;;;;;20.47;42.02;101035.50;4797988;29;20074;-77
2022/08/20 10:50:50;;;;;;;23.50;11.27;;;;;;;20.46;41.91;101041.69;4783796;29;20134;-78
2022/08/20 10:53:17;;;;;;;20.10;12.38;;;;;;;20.41;42.26;101033.03;4798759;29;20055;-78
2022/08/20 10:55:44;;;;;;;19.60;10.57;;;;;;;20.45;42.55;101036.47;4798265;29;20047;-77
2022/08/20 10:58:11;;;;;;;19.85;10.75;;;;;;;20.50;42.32;101044.25;4797699;29;20120;-78
2022/08/20 11:00:38;;;;;;;21.35;10.38;;;;;;;20.61;42.09;101032.44;4785335;29;20588;-76
2022/08/20 11:03:04;;;;;;;17.88;10.50;;;;;;;20.78;41.94;101025.75;4774803;29;20082;-79
2022/08/20 11:05:31;;;;;;;19.77;10.88;;;;;;;20.91;40.95;101024.47;4750669;29;20133;-78
2022/08/20 11:07:58;;;;;;;19.15;10.93;;;;;;;21.15;40.58;101021.03;4785514;29;20046;-78
2022/08/20 11:10:26;;;;;;;16.77;9.70;;;;;;;21.45;40.52;101007.69;4784501;29;20122;-79
2022/08/20 11:12:53;;;;;;;19.35;9.63;;;;;;;21.71;39.77;101008.56;4806704;29;20043;-77
2022/08/20 11:15:18;;;;;;;13.70;8.50;;;;;;;21.85;39.58;101000.97;4809504;29;21725;-77
2022/08/20 11:17:45;;;;;;;16.23;7.82;;;;;;;21.96;39.40;100997.91;4785533;29;20051;-79
2022/08/20 11:20:13;;;;;;;14.10;7.40;;;;;;;22.07;38.74;100990.41;4787020;29;20123;-79
2022/08/20 11:22:39;;;;;;;13.60;7.10;;;;;;;22.09;38.17;100983.28;4787549;29;20130;-80
2022/08/20 11:25:06;;;;;;;15.35;9.70;;;;;;;21.92;37.57;100967.16;4798931;29;20055;-79